Time;durP1;ratioP1;P1;durP2;ratioP2;P2;SDS_P1;SDS_P2;PMS_P1;PMS_P2;Temp;Humidity;BMP_temperature;BMP_pressure;BME280_temperature;BME280_humidity;BME280_pressure;Samples;Min_cycle;Max_cycle;Signal;HPM_P1;HPM_P2
2023/10/01 00:01:19;;;;;;;;;;;;;;;19.66;nan;102407.50;4995623;28;20391;-91
2023/10/01 00:03:44;;;;;;;;;;;;;;;19.68;nan;102405.31;4985684;28;19929;-91
2023/10/01 00:06:10;;;;;;;;;;;;;;;19.69;nan;102404.25;4984985;28;20109;-91
2023/10/01 00:08:35;;;;;;;;;;;;;;;19.69;nan;102405.06;5001750;28;20512;-92
2023/10/01 00:11:02;;;;;;;;;;;;;;;19.69;nan;102407.78;4985267;28;19929;-91
2023/10/01 00:13:28;;;;;;;;;;;;;;;19.69;nan;102402.34;4984566;28;19918;-91
2023/10/01 00:15:55;;;;;;;;;;;;;;;19.70;nan;102406.69;4983287;28;19925;-91
2023/10/01 00:18:20;;;;;;;;;;;;;;;19.72;nan;102398.25;4984620;28;19922;-91
2023/10/01 00:20:46;;;;;;;;;;;;;;;19.75;nan;102406.72;4980313;28;19959;-89
2023/10/01 00:23:12;;;;;;;;;;;;;;;19.77;nan;102392.84;4985730;28;19972;-92
2023/10/01 00:25:38;;;;;;;;;;;;;;;19.79;nan;102396.09;4985141;28;20306;-91
2023/10/01 00:28:04;;;;;;;;;;;;;;;19.80;nan;102393.13;4999004;28;19925;-91
2023/10/01 00:30:31;;;;;;;;;;;;;;;19.82;nan;102388.22;4985497;28;19918;-91
2023/10/01 00:32:56;;;;;;;;;;;;;;;19.83;nan;102389.03;4983153;28;20018;-90
2023/10/01 00:35:21;;;;;;;;;;;;;;;19.83;nan;102389.03;4983697;28;20081;-91
2023/10/01 00:37:47;;;;;;;;;;;;;;;19.85;nan;102395.84;4984217;28;19917;-90
2023/10/01 00:40:13;;;;;;;;;;;;;;;19.85;nan;102389.56;4985390;28;19948;-91
2023/10/01 00:42:39;;;;;;;;;;;;;;;19.85;nan;102395.84;4983891;28;20436;-91
2023/10/01 00:45:11;;;;;;;;;;;;;;;19.86;nan;102400.19;4979848;28;19921;-91
2023/10/01 00:47:40;;;;;;;;;;;;;;;19.88;nan;102394.47;4982124;28;19921;-91
2023/10/01 00:50:06;;;;;;;;;;;;;;;19.88;nan;102391.75;4981704;28;19925;-91
2023/10/01 00:52:31;;;;;;;;;;;;;;;19.89;nan;102390.66;4985038;28;19922;-91
2023/10/01 00:54:56;;;;;;;;;;;;;;;19.87;nan;102390.94;4983041;28;19928;-90
2023/10/01 00:57:22;;;;;;;;;;;;;;;19.87;nan;102388.22;4982366;28;19929;-91
2023/10/01 00:59:48;;;;;;;;;;;;;;;19.88;nan;102378.97;4986298;28;19925;-91
2023/10/01 01:02:17;;;;;;;;;;;;;;;19.90;nan;102378.69;4982895;28;20713;-92
2023/10/01 01:05:05;;;;;;;;;;;;;;;19.92;nan;102381.97;4984111;28;20013;-91
2023/10/01 01:07:32;;;;;;;;;;;;;;;19.90;nan;102373.25;4977830;28;19918;-91
2023/10/01 01:09:57;;;;;;;;;;;;;;;19.87;nan;102374.63;4980667;28;19925;-91
2023/10/01 01:12:24;;;;;;;;;;;;;;;19.85;nan;102376.78;4985927;28;19917;-91
2023/10/01 01:14:49;;;;;;;;;;;;;;;19.84;nan;102369.72;4985846;28;19925;-91
2023/10/01 01:17:14;;;;;;;;;;;;;;;19.80;nan;102367.81;5001651;28;19973;-91
2023/10/01 01:19:42;;;;;;;;;;;;;;;19.81;nan;102364.81;4985750;28;20309;-91
2023/10/01 01:22:09;;;;;;;;;;;;;;;19.80;nan;102362.38;4982143;28;19967;-91
2023/10/01 01:24:36;;;;;;;;;;;;;;;19.77;nan;102349.34;4985763;28;19936;-91
2023/10/01 01:27:06;;;;;;;;;;;;;;;19.73;nan;102334.63;4989960;28;19921;-91
2023/10/01 01:29:34;;;;;;;;;;;;;;;19.76;nan;102334.91;4985575;28;20293;-91
2023/10/01 01:32:14;;;;;;;;;;;;;;;19.78;nan;102356.41;4981583;28;19932;-91
2023/10/01 01:34:46;;;;;;;;;;;;;;;19.78;nan;102361.84;4985348;28;19917;-91
2023/10/01 01:39:57;;;;;;;;;;;;;;;19.77;nan;102352.06;4981609;28;19929;-91
2023/10/01 01:42:23;;;;;;;;;;;;;;;19.72;nan;102350.13;4983510;28;20392;-91
2023/10/01 01:44:48;;;;;;;;;;;;;;;19.69;nan;102347.94;4981920;28;19930;-91
2023/10/01 01:47:15;;;;;;;;;;;;;;;19.68;nan;102343.59;4983191;28;19926;-92
2023/10/01 01:49:42;;;;;;;;;;;;;;;19.69;nan;102344.41;4982470;28;19929;-91
2023/10/01 01:52:07;;;;;;;;;;;;;;;19.70;nan;102341.41;4981586;28;19922;-91
2023/10/01 01:54:39;;;;;;;;;;;;;;;19.72;nan;102350.13;4985128;28;19980;-92
2023/10/01 01:57:12;;;;;;;;;;;;;;;19.74;nan;102347.94;4979560;28;19926;-91
2023/10/01 01:59:38;;;;;;;;;;;;;;;19.72;nan;102335.72;4989153;28;19921;-91
2023/10/01 02:02:07;;;;;;;;;;;;;;;19.69;nan;102318.03;4984056;28;19925;-90
2023/10/01 02:04:32;;;;;;;;;;;;;;;19.70;nan;102330.53;4988738;28;19922;-91
2023/10/01 02:06:59;;;;;;;;;;;;;;;19.71;nan;102331.34;4987510;28;20377;-91
2023/10/01 02:09:24;;;;;;;;;;;;;;;19.70;nan;102332.44;4982845;28;20397;-91
2023/10/01 02:11:52;;;;;;;;;;;;;;;19.71;nan;102329.44;4987293;28;19922;-91
2023/10/01 02:14:30;;;;;;;;;;;;;;;19.72;nan;102330.28;5000753;28;20349;-90
2023/10/01 02:17:15;;;;;;;;;;;;;;;19.75;nan;102332.44;4983534;28;19929;-91
2023/10/01 02:19:46;;;;;;;;;;;;;;;19.78;nan;102329.22;4987105;28;19926;-91
2023/10/01 02:22:12;;;;;;;;;;;;;;;19.80;nan;102329.75;4982971;28;19922;-91
2023/10/01 02:27:10;;;;;;;;;;;;;;;19.85;nan;102327.03;4982145;28;20274;-91
2023/10/01 02:29:45;;;;;;;;;;;;;;;19.87;nan;102324.84;4987123;28;19972;-91
2023/10/01 02:32:12;;;;;;;;;;;;;;;19.88;nan;102326.47;4999398;28;19988;-91
2023/10/01 02:34:37;;;;;;;;;;;;;;;19.92;nan;102338.44;4986699;28;19921;-91
2023/10/01 02:37:06;;;;;;;;;;;;;;;19.92;nan;102339.25;4983769;28;19917;-91
2023/10/01 02:39:31;;;;;;;;;;;;;;;19.94;nan;102344.44;4986172;28;19922;-91
2023/10/01 02:42:09;;;;;;;;;;;;;;;19.94;nan;102335.47;4915601;28;1999334;-90
2023/10/01 02:44:47;;;;;;;;;;;;;;;19.97;nan;102332.19;4986434;28;19933;-91
2023/10/01 02:47:23;;;;;;;;;;;;;;;19.92;nan;102325.66;4984457;28;19918;-91
2023/10/01 02:49:53;;;;;;;;;;;;;;;19.91;nan;102320.47;4986916;28;19922;-91
2023/10/01 02:52:18;;;;;;;;;;;;;;;19.91;nan;102326.75;4986514;28;20046;-91
2023/10/01 02:54:44;;;;;;;;;;;;;;;19.93;nan;102323.78;4985804;28;19954;-91
2023/10/01 02:57:12;;;;;;;;;;;;;;;19.95;nan;102320.78;4985342;28;19926;-91
2023/10/01 03:00:30;;;;;;;;;;;;;;;19.98;nan;102318.31;4988275;28;19949;-90
2023/10/01 03:02:26;;;;;;;;;;;;;;;20.00;nan;102318.03;4983502;28;19917;-91
2023/10/01 03:04:51;;;;;;;;;;;;;;;20.00;nan;102326.19;4982943;28;20310;-91
2023/10/01 03:07:17;;;;;;;;;;;;;;;19.99;nan;102317.22;4985849;28;20365;-91
2023/10/01 03:09:43;;;;;;;;;;;;;;;20.00;nan;102302.53;4986446;28;19918;-91
2023/10/01 03:12:34;;;;;;;;;;;;;;;20.01;nan;102308.78;4983357;28;20471;-92
2023/10/01 03:15:23;;;;;;;;;;;;;;;20.03;nan;102318.31;4982592;28;19922;-92
2023/10/01 03:17:57;;;;;;;;;;;;;;;20.09;nan;102328.09;4986924;28;20397;-91
2023/10/01 03:23:05;;;;;;;;;;;;;;;20.05;nan;102326.19;4985198;28;20365;-91
2023/10/01 03:25:40;;;;;;;;;;;;;;;20.08;nan;102320.19;4985771;28;19961;-91
2023/10/01 03:28:07;;;;;;;;;;;;;;;20.09;nan;102328.09;5002403;28;20586;-91
2023/10/01 03:30:33;;;;;;;;;;;;;;;20.11;nan;102328.66;4987831;28;19970;-90
2023/10/01 03:33:01;;;;;;;;;;;;;;;20.09;nan;102332.72;4986133;28;20000;-90
2023/10/01 03:35:27;;;;;;;;;;;;;;;20.04;nan;102319.94;4985774;28;19944;-90
2023/10/01 03:38:09;;;;;;;;;;;;;;;20.04;nan;102319.13;4984618;28;19980;-91
2023/10/01 03:40:37;;;;;;;;;;;;;;;20.03;nan;102337.34;4988912;28;19964;-90
2023/10/01 03:43:07;;;;;;;;;;;;;;;19.94;nan;102328.13;4984004;28;19926;-91
2023/10/01 03:47:58;;;;;;;;;;;;;;;19.84;nan;102323.47;4981992;28;20052;-91
2023/10/01 03:50:25;;;;;;;;;;;;;;;19.82;nan;102324.84;4985094;28;19926;-91
2023/10/01 03:52:53;;;;;;;;;;;;;;;19.81;nan;102315.88;4985517;28;20381;-91
2023/10/01 03:55:28;;;;;;;;;;;;;;;19.84;nan;102309.06;4979834;28;19922;-91
2023/10/01 03:58:06;;;;;;;;;;;;;;;19.90;nan;102305.25;4983526;28;19922;-91
2023/10/01 04:00:41;;;;;;;;;;;;;;;19.95;nan;102305.28;4983676;28;19921;-91
2023/10/01 04:03:14;;;;;;;;;;;;;;;20.00;nan;102304.44;4984223;28;19926;-91
2023/10/01 04:05:46;;;;;;;;;;;;;;;20.03;nan;102301.16;4983579;28;20020;-91
2023/10/01 04:08:11;;;;;;;;;;;;;;;20.07;nan;102303.06;4985022;28;19926;-91
2023/10/01 04:10:38;;;;;;;;;;;;;;;20.08;nan;102310.13;4983997;28;20384;-91
2023/10/01 04:13:13;;;;;;;;;;;;;;;20.12;nan;102313.16;4985226;28;20448;-91
2023/10/01 04:15:43;;;;;;;;;;;;;;;20.09;nan;102314.47;4999326;28;19926;-91
2023/10/01 04:18:09;;;;;;;;;;;;;;;20.05;nan;102315.31;4982825;28;19929;-91
2023/10/01 04:20:34;;;;;;;;;;;;;;;20.02;nan;102310.41;5001920;28;19917;-90
2023/10/01 04:23:04;;;;;;;;;;;;;;;20.00;nan;102299.81;4980229;28;19928;-91
2023/10/01 04:25:34;;;;;;;;;;;;;;;19.99;nan;102303.63;4984577;28;19930;-91
2023/10/01 04:27:59;;;;;;;;;;;;;;;19.98;nan;102304.72;4984745;28;20008;-91
2023/10/01 04:30:26;;;;;;;;;;;;;;;19.96;nan;102306.91;4986628;28;20016;-90
2023/10/01 04:32:51;;;;;;;;;;;;;;;19.90;nan;102306.06;4987788;28;19940;-91
2023/10/01 04:35:16;;;;;;;;;;;;;;;19.91;nan;102304.16;4985403;28;19929;-90
2023/10/01 04:37:43;;;;;;;;;;;;;;;19.93;nan;102310.16;4985758;28;19960;-90
2023/10/01 04:40:54;;;;;;;;;;;;;;;19.90;nan;102306.06;5001150;28;19928;-91
2023/10/01 04:42:55;;;;;;;;;;;;;;;19.89;nan;102304.44;4981454;28;19922;-92
2023/10/01 04:45:23;;;;;;;;;;;;;;;19.90;nan;102302.53;4985990;28;20361;-91
2023/10/01 04:48:02;;;;;;;;;;;;;;;19.89;nan;102296.28;4984380;28;19977;-91
2023/10/01 04:50:29;;;;;;;;;;;;;;;19.94;nan;102305.53;4986365;28;19917;-91
2023/10/01 04:52:59;;;;;;;;;;;;;;;19.96;nan;102306.91;4983367;28;19988;-91
2023/10/01 04:55:30;;;;;;;;;;;;;;;19.95;nan;102305.28;4981263;28;19930;-90
2023/10/01 04:57:57;;;;;;;;;;;;;;;19.91;nan;102306.88;4983991;28;19928;-91
2023/10/01 05:00:22;;;;;;;;;;;;;;;19.88;nan;102302.81;4985068;28;19928;-92
2023/10/01 05:02:49;;;;;;;;;;;;;;;19.88;nan;102293.84;4982322;28;19917;-92
2023/10/01 05:05:16;;;;;;;;;;;;;;;19.87;nan;102293.00;4980827;28;20540;-89
2023/10/01 05:07:42;;;;;;;;;;;;;;;19.86;nan;102294.09;4984452;28;20011;-92
2023/10/01 05:10:08;;;;;;;;;;;;;;;19.87;nan;102292.19;4985722;28;19921;-91
2023/10/01 05:12:43;;;;;;;;;;;;;;;19.80;nan;102286.22;4979242;28;19928;-91
2023/10/01 05:15:17;;;;;;;;;;;;;;;19.80;nan;102286.22;4982201;28;19967;-90
2023/10/01 05:17:43;;;;;;;;;;;;;;;19.84;nan;102287.31;4984862;28;20158;-91
2023/10/01 05:20:09;;;;;;;;;;;;;;;19.85;nan;102287.03;4985684;28;19918;-91
2023/10/01 05:22:46;;;;;;;;;;;;;;;19.82;nan;102293.03;4985512;28;20117;-91
2023/10/01 05:25:12;;;;;;;;;;;;;;;19.77;nan;102297.66;4986309;28;19922;-92
2023/10/01 05:27:40;;;;;;;;;;;;;;;19.75;nan;102305.25;4974916;28;19922;-91
2023/10/01 05:30:32;;;;;;;;;;;;;;;19.72;nan;102300.34;4981898;28;19951;-92
2023/10/01 05:32:52;;;;;;;;;;;;;;;19.75;nan;102297.09;4980675;28;20263;-91
2023/10/01 05:35:17;;;;;;;;;;;;;;;19.78;nan;102310.16;4982457;28;19969;-91
2023/10/01 05:37:45;;;;;;;;;;;;;;;19.76;nan;102302.28;4996853;28;19965;-90
2023/10/01 05:40:15;;;;;;;;;;;;;;;19.75;nan;102313.41;4984139;28;20109;-91
2023/10/01 05:42:40;;;;;;;;;;;;;;;19.77;nan;102308.53;4983629;28;19941;-91
2023/10/01 05:45:14;;;;;;;;;;;;;;;19.83;nan;102307.44;4995731;28;19922;-91
2023/10/01 05:47:50;;;;;;;;;;;;;;;19.88;nan;102315.59;4982076;28;19965;-90
2023/10/01 05:50:18;;;;;;;;;;;;;;;19.91;nan;102313.13;4981458;28;20021;-91
2023/10/01 05:52:45;;;;;;;;;;;;;;;19.97;nan;102316.69;4981159;28;19926;-91
2023/10/01 05:55:15;;;;;;;;;;;;;;;19.96;nan;102316.97;4984407;28;19918;-91
2023/10/01 05:57:41;;;;;;;;;;;;;;;19.97;nan;102311.25;4979741;28;20394;-91
2023/10/01 06:00:16;;;;;;;;;;;;;;;20.02;nan;102316.69;4979770;28;20003;-91
2023/10/01 06:02:47;;;;;;;;;;;;;;;20.09;nan;102309.03;4981356;28;19937;-91
2023/10/01 06:05:25;;;;;;;;;;;;;;;20.15;nan;102310.69;4984690;28;19921;-91
2023/10/01 06:07:51;;;;;;;;;;;;;;;20.18;nan;102312.84;4984585;28;19929;-90
2023/10/01 06:10:19;;;;;;;;;;;;;;;20.21;nan;102309.56;4983776;28;19953;-91
2023/10/01 06:12:50;;;;;;;;;;;;;;;20.25;nan;102300.84;4979701;28;20008;-90
2023/10/01 06:15:20;;;;;;;;;;;;;;;20.26;nan;102294.31;4982100;28;19918;-90
2023/10/01 06:17:46;;;;;;;;;;;;;;;20.28;nan;102292.13;4984149;28;19918;-92
2023/10/01 06:20:23;;;;;;;;;;;;;;;20.28;nan;102292.94;4985203;28;19925;-92
2023/10/01 06:22:49;;;;;;;;;;;;;;;20.30;nan;102298.16;4985272;28;19943;-91
2023/10/01 06:25:15;;;;;;;;;;;;;;;20.32;nan;102288.59;4983820;28;19926;-91
2023/10/01 06:27:40;;;;;;;;;;;;;;;20.36;nan;102294.31;4982791;28;19922;-91
2023/10/01 06:30:08;;;;;;;;;;;;;;;20.43;nan;102294.84;4984450;28;19917;-91
2023/10/01 06:32:34;;;;;;;;;;;;;;;20.51;nan;102294.31;4982585;28;19933;-91
2023/10/01 06:35:02;;;;;;;;;;;;;;;20.57;nan;102298.63;4982695;28;19918;-91
2023/10/01 06:37:45;;;;;;;;;;;;;;;20.58;nan;102292.09;4981748;28;20381;-92
2023/10/01 06:40:29;;;;;;;;;;;;;;;20.58;nan;102292.09;4995368;28;20196;-92
2023/10/01 06:42:55;;;;;;;;;;;;;;;20.63;nan;102292.06;4984495;28;20381;-92
2023/10/01 06:45:38;;;;;;;;;;;;;;;20.65;nan;102287.19;5002387;28;19921;-92
2023/10/01 06:48:08;;;;;;;;;;;;;;;20.78;nan;102294.72;4986081;28;19917;-92
2023/10/01 06:50:35;;;;;;;;;;;;;;;20.92;nan;102296.84;4987296;28;19922;-92
2023/10/01 06:53:00;;;;;;;;;;;;;;;21.03;nan;102290.25;5000492;28;20369;-92
2023/10/01 06:55:28;;;;;;;;;;;;;;;21.15;nan;102290.72;5003519;28;19924;-94
2023/10/01 06:57:55;;;;;;;;;;;;;;;21.28;nan;102298.31;4990557;28;19940;-91
2023/10/01 07:00:23;;;;;;;;;;;;;;;21.41;nan;102294.94;4987724;28;20016;-89
2023/10/01 07:02:51;;;;;;;;;;;;;;;21.51;nan;102298.69;4979574;28;19941;-91
2023/10/01 07:05:22;;;;;;;;;;;;;;;21.59;nan;102300.81;4998572;28;19949;-86
2023/10/01 07:07:50;;;;;;;;;;;;;;;21.62;nan;102303.78;4981751;28;19922;-93
2023/10/01 07:10:19;;;;;;;;;;;;;;;21.63;nan;102302.69;4987863;28;20054;-90
2023/10/01 07:12:57;;;;;;;;;;;;;;;21.58;nan;102301.94;4983566;28;19918;-91
2023/10/01 07:15:25;;;;;;;;;;;;;;;21.58;nan;102307.38;4982942;28;19917;-90
2023/10/01 07:17:51;;;;;;;;;;;;;;;21.62;nan;102302.97;4982977;28;19996;-91
2023/10/01 07:20:19;;;;;;;;;;;;;;;21.68;nan;102313.56;4983992;28;20393;-90
2023/10/01 07:22:44;;;;;;;;;;;;;;;21.78;nan;102309.94;4981562;28;19922;-90
2023/10/01 07:25:28;;;;;;;;;;;;;;;21.87;nan;102315.59;4984273;28;20448;-87
2023/10/01 07:27:56;;;;;;;;;;;;;;;21.89;nan;102316.94;4984755;28;20382;-92
2023/10/01 07:30:39;;;;;;;;;;;;;;;21.99;nan;102326.94;4984948;28;20008;-92
2023/10/01 07:33:05;;;;;;;;;;;;;;;22.09;nan;102332.34;4979687;28;19929;-92
2023/10/01 07:35:30;;;;;;;;;;;;;;;22.19;nan;102331.44;4979906;28;20309;-93
2023/10/01 07:37:55;;;;;;;;;;;;;;;22.26;nan;102331.91;4984920;28;19990;-93
2023/10/01 07:40:23;;;;;;;;;;;;;;;22.36;nan;102326.34;4992488;28;19913;-93
2023/10/01 07:42:54;;;;;;;;;;;;;;;22.48;nan;102334.16;4988130;28;19922;-94
2023/10/01 07:45:19;;;;;;;;;;;;;;;22.55;nan;102329.94;4989807;28;19930;-94
2023/10/01 07:47:45;;;;;;;;;;;;;;;22.64;nan;102330.16;4983800;28;19984;-92
2023/10/01 07:50:16;;;;;;;;;;;;;;;22.72;nan;102334.13;4994475;28;19921;-93
2023/10/01 07:52:42;;;;;;;;;;;;;;;22.77;nan;102340.34;5004826;28;19921;-92
2023/10/01 07:57:52;;;;;;;;;;;;;;;22.84;nan;102346.31;4992311;28;19940;-93
2023/10/01 08:00:28;;;;;;;;;;;;;;;22.87;nan;102344.91;4986281;28;19922;-92
2023/10/01 08:03:45;;;;;;;;;;;;;;;22.89;nan;102340.78;4989963;28;19929;-91
2023/10/01 08:05:47;;;;;;;;;;;;;;;22.94;nan;102339.91;4981061;28;19936;-92
2023/10/01 08:08:13;;;;;;;;;;;;;;;23.03;nan;102337.34;4989765;28;19957;-93
2023/10/01 08:10:43;;;;;;;;;;;;;;;23.12;nan;102343.75;4987056;28;20456;-95
2023/10/01 08:13:16;;;;;;;;;;;;;;;23.17;nan;102344.53;4989649;28;19918;-94
2023/10/01 08:16:01;;;;;;;;;;;;;;;23.25;nan;102339.50;4986414;28;19918;-94
2023/10/01 08:18:34;;;;;;;;;;;;;;;23.30;nan;102340.22;4989403;28;19917;-92
2023/10/01 08:21:02;;;;;;;;;;;;;;;23.35;nan;102340.19;4987231;28;19925;-93
2023/10/01 08:23:28;;;;;;;;;;;;;;;23.42;nan;102348.81;4985340;28;19918;-93
2023/10/01 08:25:55;;;;;;;;;;;;;;;23.47;nan;102350.66;4982426;28;19984;-93
2023/10/01 08:31:01;;;;;;;;;;;;;;;23.70;nan;102338.84;4982438;28;19926;-93
2023/10/01 08:33:32;;;;;;;;;;;;;;;23.88;nan;102341.81;4984027;28;20001;-91
2023/10/01 08:36:01;;;;;;;;;;;;;;;24.01;nan;102349.28;4984776;28;19972;-94
2023/10/01 08:38:34;;;;;;;;;;;;;;;24.16;nan;102335.31;4982719;28;19936;-92
2023/10/01 08:41:02;;;;;;;;;;;;;;;24.38;nan;102332.72;4985614;28;19961;-93
2023/10/01 08:43:31;;;;;;;;;;;;;;;24.55;nan;102334.88;4978528;28;19921;-93
2023/10/01 08:46:05;;;;;;;;;;;;;;;24.64;nan;102344.03;4981739;28;19927;-92
2023/10/01 08:48:36;;;;;;;;;;;;;;;24.64;nan;102344.03;4981646;28;20381;-90
2023/10/01 08:51:08;;;;;;;;;;;;;;;24.73;nan;102348.78;4981170;28;19917;-94
2023/10/01 08:53:36;;;;;;;;;;;;;;;24.83;nan;102337.63;4987017;28;19961;-93
2023/10/01 08:56:04;;;;;;;;;;;;;;;24.95;nan;102335.97;4992541;28;19953;-85
2023/10/01 08:58:41;;;;;;;;;;;;;;;25.12;nan;102346.31;4984484;28;19957;-95
2023/10/01 09:01:13;;;;;;;;;;;;;;;25.22;nan;102342.56;4989675;28;19921;-96
2023/10/01 09:03:39;;;;;;;;;;;;;;;25.36;nan;102345.28;4997347;28;19933;-96
2023/10/01 09:06:24;;;;;;;;;;;;;;;25.50;nan;102335.88;4997738;28;19968;-95
2023/10/01 09:13:58;;;;;;;;;;;;;;;26.01;nan;102344.78;5036208;28;19925;-94
2023/10/01 09:16:31;;;;;;;;;;;;;;;26.17;nan;102352.31;5024718;28;19964;-94
2023/10/01 09:21:41;;;;;;;;;;;;;;;26.48;nan;102343.28;5050210;28;19928;-96
2023/10/01 09:24:31;;;;;;;;;;;;;;;26.68;nan;102353.72;5039057;28;21274;-96
2023/10/01 09:27:08;;;;;;;;;;;;;;;26.76;nan;102349.38;5032460;28;19921;-91
2023/10/01 09:29:43;;;;;;;;;;;;;;;26.84;nan;102361.53;5037789;28;19925;-91
2023/10/01 09:32:08;;;;;;;;;;;;;;;27.02;nan;102354.97;5032634;28;19917;-94
2023/10/01 09:34:34;;;;;;;;;;;;;;;27.16;nan;102343.81;5027856;28;19936;-95
2023/10/01 09:37:33;;;;;;;;;;;;;;;27.30;nan;102348.03;5033944;28;19963;-93
2023/10/01 09:39:56;;;;;;;;;;;;;;;27.46;nan;102328.28;5022483;28;20470;-92
2023/10/01 09:47:33;;;;;;;;;;;;;;;27.89;nan;102325.50;5077365;28;20686;-96
2023/10/01 09:49:59;;;;;;;;;;;;;;;27.96;nan;102315.59;5094393;28;19932;-95
2023/10/01 09:52:29;;;;;;;;;;;;;;;27.96;nan;102310.06;5080185;28;20384;-96
2023/10/01 09:55:26;;;;;;;;;;;;;;;27.93;nan;102310.75;5090632;28;19963;-96
2023/10/01 09:57:54;;;;;;;;;;;;;;;28.00;nan;102311.03;5078735;28;19931;-93
2023/10/01 10:00:20;;;;;;;;;;;;;;;28.19;nan;102315.38;5078082;28;19925;-96
2023/10/01 10:02:52;;;;;;;;;;;;;;;28.23;nan;102308.88;5110367;28;19946;-96
2023/10/01 10:05:25;;;;;;;;;;;;;;;28.38;nan;102312.25;5086239;28;19977;-96
2023/10/01 10:08:13;;;;;;;;;;;;;;;28.40;nan;102313.53;5095104;28;20429;-96
2023/10/01 10:10:49;;;;;;;;;;;;;;;28.45;nan;102321.59;5096681;28;19966;-96
2023/10/01 10:13:36;;;;;;;;;;;;;;;28.52;nan;102318.31;5085521;28;19928;-96
2023/10/01 10:16:25;;;;;;;;;;;;;;;28.50;nan;102315.09;5085625;28;19960;-95
2023/10/01 10:19:20;;;;;;;;;;;;;;;28.48;nan;102306.34;5085487;28;19931;-96
2023/10/01 10:24:29;;;;;;;;;;;;;;;28.39;nan;102313.84;5088815;28;19931;-92
2023/10/01 10:27:17;;;;;;;;;;;;;;;28.41;nan;102308.81;5090371;28;19920;-96
2023/10/01 10:29:57;;;;;;;;;;;;;;;28.43;nan;102301.81;5104179;28;20026;-96
2023/10/01 10:32:24;;;;;;;;;;;;;;;28.43;nan;102310.09;5094286;28;19919;-96
2023/10/01 10:35:04;;;;;;;;;;;;;;;28.43;nan;102307.34;5091109;28;19920;-93
2023/10/01 10:37:36;;;;;;;;;;;;;;;28.42;nan;102307.69;5091297;28;20003;-90
2023/10/01 10:40:12;;;;;;;;;;;;;;;28.39;nan;102311.91;5093421;28;19916;-95
2023/10/01 10:42:41;;;;;;;;;;;;;;;28.33;nan;102310.47;5089342;28;19924;-89
2023/10/01 10:45:19;;;;;;;;;;;;;;;28.24;nan;102315.19;5087214;28;21631;-93
2023/10/01 10:48:14;;;;;;;;;;;;;;;28.24;nan;102304.97;5091161;28;19927;-92
2023/10/01 10:50:39;;;;;;;;;;;;;;;28.32;nan;102308.84;5082782;28;20432;-93
2023/10/01 10:53:14;;;;;;;;;;;;;;;28.37;nan;102307.84;5080914;28;19923;-96
2023/10/01 10:55:50;;;;;;;;;;;;;;;28.36;nan;102309.78;5078791;28;20166;-94
2023/10/01 10:58:15;;;;;;;;;;;;;;;28.23;nan;102305.31;5090186;28;19924;-96
2023/10/01 11:00:41;;;;;;;;;;;;;;;28.20;nan;102311.47;5085717;28;20581;-91
2023/10/01 11:03:10;;;;;;;;;;;;;;;28.12;nan;102306.78;5088270;28;19920;-95
2023/10/01 11:05:49;;;;;;;;;;;;;;;28.09;nan;102307.44;5089379;28;19924;-96
2023/10/01 11:08:25;;;;;;;;;;;;;;;28.11;nan;102308.72;5079705;28;20454;-91
2023/10/01 11:10:51;;;;;;;;;;;;;;;28.10;nan;102309.06;5088873;28;19930;-91
2023/10/01 11:13:27;;;;;;;;;;;;;;;28.08;nan;102308.59;5087483;28;19924;-92
2023/10/01 11:15:53;;;;;;;;;;;;;;;28.12;nan;102306.78;5096383;28;20303;-91
2023/10/01 11:18:25;;;;;;;;;;;;;;;28.19;nan;102310.66;5085522;28;19916;-87
2023/10/01 11:21:01;;;;;;;;;;;;;;;28.24;nan;102315.19;5081568;28;20447;-91
2023/10/01 11:23:27;;;;;;;;;;;;;;;28.29;nan;102313.06;5084046;28;19971;-95
2023/10/01 11:25:53;;;;;;;;;;;;;;;28.32;nan;102297.81;5084781;28;19924;-87
2023/10/01 11:28:18;;;;;;;;;;;;;;;28.30;nan;102297.34;5079366;28;19927;-96
2023/10/01 11:30:46;;;;;;;;;;;;;;;28.35;nan;102294.38;5091959;28;19920;-95
2023/10/01 11:35:37;;;;;;;;;;;;;;;28.57;nan;102280.34;5078773;28;20400;-91
2023/10/01 11:38:10;;;;;;;;;;;;;;;28.63;nan;102283.72;5076929;28;19924;-90
2023/10/01 11:43:35;;;;;;;;;;;;;;;28.79;nan;102279.22;5089106;28;19978;-88
2023/10/01 11:46:19;;;;;;;;;;;;;;;28.81;nan;102276.94;5086928;28;20116;-91
2023/10/01 11:49:18;;;;;;;;;;;;;;;28.80;nan;102275.31;5085678;28;19919;-94
2023/10/01 11:54:44;;;;;;;;;;;;;;;28.91;nan;102264.75;5064636;28;19931;-92
2023/10/01 11:57:22;;;;;;;;;;;;;;;29.05;nan;102256.97;5084983;28;19946;-96
2023/10/01 11:59:58;;;;;;;;;;;;;;;29.16;nan;102255.44;5114369;28;19924;-96
2023/10/01 12:02:25;;;;;;;;;;;;;;;29.31;nan;102255.97;5088790;28;20467;-88
2023/10/01 12:04:56;;;;;;;;;;;;;;;29.40;nan;102265.75;5084104;28;20015;-90
2023/10/01 12:07:22;;;;;;;;;;;;;;;29.45;nan;102253.72;5087590;28;20378;-96
2023/10/01 12:09:48;;;;;;;;;;;;;;;29.58;nan;102255.38;5085371;28;19916;-90
2023/10/01 12:12:21;;;;;;;;;;;;;;;29.73;nan;102254.72;5084749;28;19943;-88
2023/10/01 12:14:53;;;;;;;;;;;;;;;29.77;nan;102254.84;5089158;28;19921;-92
2023/10/01 12:17:23;;;;;;;;;;;;;;;29.72;nan;102255.88;5088056;28;19999;-91
2023/10/01 12:19:51;;;;;;;;;;;;;;;29.60;nan;102266.06;5086884;28;20405;-87
2023/10/01 12:22:23;;;;;;;;;;;;;;;29.50;nan;102277.56;5080822;28;19936;-89
2023/10/01 12:24:56;;;;;;;;;;;;;;;29.42;nan;102279.22;5086639;28;19924;-96
2023/10/01 12:27:37;;;;;;;;;;;;;;;29.36;nan;102283.34;5087014;28;19951;-88
2023/10/01 12:30:04;;;;;;;;;;;;;;;29.31;nan;102281.59;5080139;28;19950;-95
2023/10/01 12:32:41;;;;;;;;;;;;;;;29.23;nan;102281.66;5085113;28;19927;-96
2023/10/01 12:35:18;;;;;;;;;;;;;;;29.14;nan;102274.28;5087266;28;20278;-94
2023/10/01 12:37:44;;;;;;;;;;;;;;;29.06;nan;102264.09;5081432;28;20419;-90
2023/10/01 12:40:15;;;;;;;;;;;;;;;28.97;nan;102266.16;5084013;28;19927;-88
2023/10/01 12:42:40;;;;;;;;;;;;;;;28.87;nan;102266.53;5080694;28;20007;-96
2023/10/01 12:45:19;;;;;;;;;;;;;;;28.86;nan;102259.41;5080435;28;19928;-93
2023/10/01 12:47:50;;;;;;;;;;;;;;;28.89;nan;102258.72;5074758;28;20299;-91
2023/10/01 12:50:28;;;;;;;;;;;;;;;28.93;nan;102253.38;5076355;28;20731;-91
2023/10/01 12:55:51;;;;;;;;;;;;;;;29.10;nan;102254.03;5074886;28;19927;-96
2023/10/01 12:58:16;;;;;;;;;;;;;;;29.23;nan;102245.78;5077217;28;19931;-91
2023/10/01 13:00:45;;;;;;;;;;;;;;;29.25;nan;102240.72;5085563;28;20114;-96
2023/10/01 13:03:16;;;;;;;;;;;;;;;29.26;nan;102234.88;5076034;28;20422;-90
2023/10/01 13:05:43;;;;;;;;;;;;;;;29.27;nan;102230.19;5069589;28;19931;-91
2023/10/01 13:08:10;;;;;;;;;;;;;;;29.28;nan;102240.88;5075999;28;20192;-88
2023/10/01 13:10:38;;;;;;;;;;;;;;;29.34;nan;102233.19;5066955;28;19924;-93
2023/10/01 13:13:05;;;;;;;;;;;;;;;29.36;nan;102230.88;5080679;28;20537;-87
2023/10/01 13:15:33;;;;;;;;;;;;;;;29.35;nan;102232.03;5084028;28;20495;-88
2023/10/01 13:18:15;;;;;;;;;;;;;;;29.41;nan;102231.47;5080336;28;19920;-88
2023/10/01 13:23:24;;;;;;;;;;;;;;;29.46;nan;102224.97;5089840;28;20183;-93
2023/10/01 13:26:05;;;;;;;;;;;;;;;29.39;nan;102216.41;5090327;28;19920;-93
2023/10/01 13:28:43;;;;;;;;;;;;;;;29.38;nan;102206.50;5083780;28;19923;-95
2023/10/01 13:31:11;;;;;;;;;;;;;;;29.43;nan;102217.31;5095805;28;19955;-96
2023/10/01 13:36:35;;;;;;;;;;;;;;;29.50;nan;102214.06;5087528;28;19972;-89
2023/10/01 14:08:43;;;;;;;;;;;;;;;29.67;nan;102189.81;5097249;28;19931;-96
2023/10/01 14:11:09;;;;;;;;;;;;;;;29.70;nan;102189.13;5078023;28;19920;-96
2023/10/01 14:13:41;;;;;;;;;;;;;;;29.70;nan;102180.81;5071250;28;19924;-90
2023/10/01 14:16:17;;;;;;;;;;;;;;;29.76;nan;102182.19;5078876;28;20298;-91
2023/10/01 14:18:53;;;;;;;;;;;;;;;29.78;nan;102173.56;5081510;28;20019;-92
2023/10/01 14:21:23;;;;;;;;;;;;;;;29.75;nan;102186.13;5087353;28;19985;-96
2023/10/01 14:24:21;;;;;;;;;;;;;;;29.74;nan;102181.75;5092630;28;20508;-96
2023/10/01 14:26:46;;;;;;;;;;;;;;;29.74;nan;102173.47;5086805;28;19977;-92
2023/10/01 14:29:11;;;;;;;;;;;;;;;29.72;nan;102174.97;5083718;28;19944;-96
2023/10/01 14:31:49;;;;;;;;;;;;;;;29.61;nan;102176.53;5084062;28;19920;-90
2023/10/01 14:34:17;;;;;;;;;;;;;;;29.52;nan;102182.19;5084880;28;19931;-96